Time;durP1;ratioP1;P1;durP2;ratioP2;P2;SDS_P1;SDS_P2;PMS_P1;PMS_P2;Temp;Humidity;BMP_temperature;BMP_pressure;BME280_temperature;BME280_humidity;BME280_pressure;Samples;Min_cycle;Max_cycle;Signal;HPM_P1;HPM_P2
2022/05/31 00:00:29;;;;;;;4.55;1.50;;;9.20;99.90;;;;;;5055393;28;20021;-57
2022/05/31 00:02:56;;;;;;;2.92;1.40;;;9.20;99.90;;;;;;5053636;28;20028;-60
2022/05/31 00:05:22;;;;;;;5.43;1.25;;;9.10;99.90;;;;;;5054711;28;20105;-60
2022/05/31 00:07:47;;;;;;;3.00;1.40;;;9.00;99.90;;;;;;5053537;28;20115;-59
2022/05/31 00:10:15;;;;;;;1.83;1.33;;;9.00;99.90;;;;;;5055005;28;20025;-60
2022/05/31 00:12:41;;;;;;;2.05;1.48;;;9.00;99.90;;;;;;5054759;28;20079;-60
2022/05/31 00:15:09;;;;;;;3.00;1.80;;;8.90;99.90;;;;;;5054440;28;20017;-58
2022/05/31 00:17:34;;;;;;;3.78;1.55;;;8.90;99.90;;;;;;5053370;28;20064;-60
2022/05/31 00:20:00;;;;;;;2.00;1.67;;;8.80;99.90;;;;;;5053264;28;20060;-60
2022/05/31 00:22:27;;;;;;;3.20;1.50;;;8.80;99.90;;;;;;5053400;28;20040;-60
2022/05/31 00:24:53;;;;;;;4.32;1.70;;;8.80;99.90;;;;;;5054763;28;20464;-59
2022/05/31 00:27:22;;;;;;;3.05;1.60;;;8.80;99.90;;;;;;5053365;28;20028;-60
2022/05/31 00:29:48;;;;;;;3.00;1.52;;;8.80;99.90;;;;;;5053175;28;20547;-60
2022/05/31 00:32:16;;;;;;;4.40;1.73;;;8.70;99.90;;;;;;5053155;28;20117;-59
2022/05/31 00:34:44;;;;;;;3.70;1.33;;;8.70;99.90;;;;;;5054376;28;20096;-59
2022/05/31 00:37:11;;;;;;;1.67;1.58;;;8.70;99.90;;;;;;5053315;28;20025;-58
2022/05/31 00:39:37;;;;;;;2.72;1.33;;;8.60;99.90;;;;;;5052913;28;20025;-59
2022/05/31 00:42:11;;;;;;;2.10;1.52;;;8.60;99.90;;;;;;5053128;28;20493;-60
2022/05/31 00:44:38;;;;;;;2.92;1.33;;;8.60;99.90;;;;;;5052907;28;20024;-60
2022/05/31 00:47:14;;;;;;;2.38;1.63;;;8.50;99.90;;;;;;5054094;28;20021;-55
2022/05/31 00:49:47;;;;;;;2.35;1.60;;;8.50;99.90;;;;;;5054145;28;20048;-57
2022/05/31 00:52:28;;;;;;;7.25;2.00;;;8.50;99.90;;;;;;5054381;28;20021;-59
2022/05/31 00:55:07;;;;;;;2.08;1.48;;;8.50;99.90;;;;;;5054220;28;20036;-58
2022/05/31 00:57:36;;;;;;;3.17;1.90;;;8.50;99.90;;;;;;5053312;28;20098;-57
2022/05/31 01:00:09;;;;;;;3.60;2.15;;;8.60;99.90;;;;;;5053733;28;20356;-59
2022/05/31 01:02:36;;;;;;;2.85;1.98;;;8.50;99.90;;;;;;5054152;28;20021;-60
2022/05/31 01:05:04;;;;;;;6.07;2.17;;;8.50;99.90;;;;;;5053265;28;20032;-57
2022/05/31 01:07:31;;;;;;;3.22;1.83;;;8.50;99.90;;;;;;5053454;28;20036;-59
2022/05/31 01:09:57;;;;;;;1.83;1.50;;;8.50;99.90;;;;;;5052456;28;20021;-56
2022/05/31 01:12:24;;;;;;;4.45;1.80;;;8.50;99.90;;;;;;5053739;28;20032;-60
2022/05/31 01:14:50;;;;;;;4.70;2.00;;;8.50;99.90;;;;;;5052508;28;20029;-59
2022/05/31 01:17:19;;;;;;;1.92;1.60;;;8.50;99.90;;;;;;5052517;28;20025;-60
2022/05/31 01:19:59;;;;;;;3.30;1.52;;;8.40;99.90;;;;;;5053256;28;20071;-59
2022/05/31 01:22:56;;;;;;;2.42;1.73;;;8.40;99.90;;;;;;5052777;28;20032;-56
2022/05/31 01:25:22;;;;;;;2.65;1.40;;;8.30;99.90;;;;;;5053352;28;20104;-57
2022/05/31 01:27:50;;;;;;;4.57;1.88;;;8.30;99.90;;;;;;5051998;28;20108;-58
2022/05/31 01:30:18;;;;;;;5.25;1.77;;;8.20;99.90;;;;;;5053293;28;20035;-59
2022/05/31 01:32:53;;;;;;;3.88;1.83;;;8.20;99.90;;;;;;5051910;28;20048;-58
2022/05/31 01:35:24;;;;;;;5.43;1.65;;;8.20;99.90;;;;;;5053228;28;20021;-59
2022/05/31 01:37:56;;;;;;;4.53;1.63;;;8.20;99.90;;;;;;5052209;28;20029;-59
2022/05/31 01:40:35;;;;;;;4.50;2.20;;;8.30;99.90;;;;;;5053419;28;20017;-58
2022/05/31 01:43:01;;;;;;;3.85;1.85;;;8.20;99.90;;;;;;5053194;28;20483;-60
2022/05/31 01:45:32;;;;;;;2.08;1.40;;;8.20;99.90;;;;;;5052940;28;20039;-58
2022/05/31 01:48:01;;;;;;;5.15;1.70;;;8.10;99.90;;;;;;5051755;28;20025;-58
2022/05/31 01:50:27;;;;;;;5.15;1.73;;;8.10;99.90;;;;;;5051870;28;20391;-56
2022/05/31 01:52:53;;;;;;;3.47;1.83;;;8.10;99.90;;;;;;5052437;28;20104;-58
2022/05/31 01:55:21;;;;;;;3.42;1.70;;;8.10;99.90;;;;;;5051606;28;20582;-60
2022/05/31 01:57:57;;;;;;;6.75;1.60;;;8.00;99.90;;;;;;5053068;28;20112;-60
2022/05/31 02:00:23;;;;;;;3.22;1.85;;;8.00;99.90;;;;;;5052945;28;20396;-60
2022/05/31 02:02:51;;;;;;;2.67;1.38;;;7.90;99.90;;;;;;5052457;28;20055;-58
2022/05/31 02:05:17;;;;;;;4.03;1.50;;;7.90;99.90;;;;;;5051557;28;20116;-60
2022/05/31 02:07:53;;;;;;;3.55;1.92;;;7.80;99.90;;;;;;5053397;28;20037;-60
2022/05/31 02:10:18;;;;;;;3.38;1.60;;;7.70;99.90;;;;;;5051544;28;20021;-60
2022/05/31 02:12:44;;;;;;;6.10;1.95;;;7.70;99.90;;;;;;5052738;28;20023;-60
2022/05/31 02:15:10;;;;;;;2.88;1.50;;;7.70;99.90;;;;;;5052017;28;20032;-60
2022/05/31 02:17:35;;;;;;;2.58;1.60;;;7.80;99.90;;;;;;5052225;28;20024;-60
2022/05/31 02:20:01;;;;;;;3.00;2.10;;;7.80;99.90;;;;;;5051578;28;20031;-60
2022/05/31 02:22:30;;;;;;;2.67;1.60;;;7.90;99.90;;;;;;5052185;28;20036;-56
2022/05/31 02:24:56;;;;;;;4.95;2.00;;;7.90;99.90;;;;;;5052674;28;20017;-57
2022/05/31 02:27:21;;;;;;;3.13;1.88;;;7.80;99.90;;;;;;5051517;28;20052;-60
2022/05/31 02:29:47;;;;;;;3.13;1.90;;;7.80;99.90;;;;;;5052651;28;20103;-60
2022/05/31 02:32:15;;;;;;;3.30;2.00;;;7.70;99.90;;;;;;5052569;28;20056;-60
2022/05/31 02:34:44;;;;;;;3.30;1.65;;;7.80;99.90;;;;;;5052490;28;20029;-60
2022/05/31 02:37:11;;;;;;;4.47;1.67;;;7.70;99.90;;;;;;5051162;28;20472;-60
2022/05/31 02:39:37;;;;;;;3.45;1.45;;;7.70;99.90;;;;;;5052473;28;20029;-59
2022/05/31 02:42:04;;;;;;;3.47;1.80;;;7.70;99.90;;;;;;5052512;28;20053;-60
2022/05/31 02:44:29;;;;;;;5.88;2.10;;;7.70;99.90;;;;;;5051125;28;20093;-60
2022/05/31 02:46:55;;;;;;;3.17;1.80;;;7.60;99.90;;;;;;5052577;28;20112;-60
2022/05/31 02:49:21;;;;;;;2.78;1.98;;;7.60;99.90;;;;;;5051110;28;20017;-60
2022/05/31 02:51:48;;;;;;;4.32;1.77;;;7.60;99.90;;;;;;5051183;28;20021;-60
2022/05/31 02:54:15;;;;;;;2.05;1.33;;;7.50;99.90;;;;;;5052269;28;20025;-60
2022/05/31 02:56:41;;;;;;;4.50;1.80;;;7.50;99.90;;;;;;5051308;28;20566;-60
2022/05/31 02:59:07;;;;;;;2.97;1.98;;;7.40;99.90;;;;;;5051272;28;20025;-57
2022/05/31 03:01:36;;;;;;;6.55;2.17;;;7.40;99.90;;;;;;5052312;28;20032;-60
2022/05/31 03:04:03;;;;;;;3.75;1.65;;;7.40;99.90;;;;;;5050988;28;20029;-60
2022/05/31 03:06:28;;;;;;;3.63;2.67;;;7.30;99.90;;;;;;5055762;28;20075;-60
2022/05/31 03:08:54;;;;;;;5.07;2.40;;;7.30;99.90;;;;;;5054904;28;20048;-60
2022/05/31 03:11:32;;;;;;;5.97;2.08;;;7.20;99.90;;;;;;5056306;28;20017;-61
2022/05/31 03:14:10;;;;;;;4.88;2.05;;;7.20;99.90;;;;;;5055409;28;20057;-62
2022/05/31 03:16:40;;;;;;;2.25;1.70;;;7.20;99.90;;;;;;5055885;28;20032;-63
2022/05/31 03:19:09;;;;;;;5.03;1.85;;;7.20;99.90;;;;;;5056083;28;20464;-62
2022/05/31 03:21:42;;;;;;;3.17;1.70;;;7.20;99.90;;;;;;5055819;28;20030;-60
2022/05/31 03:24:12;;;;;;;5.28;1.83;;;7.20;99.90;;;;;;5055952;28;20028;-60
2022/05/31 03:26:41;;;;;;;2.67;1.75;;;7.20;99.90;;;;;;5054444;28;20078;-59
2022/05/31 03:29:08;;;;;;;5.00;2.42;;;7.20;99.90;;;;;;5054666;28;20107;-60
2022/05/31 03:31:35;;;;;;;6.50;2.17;;;7.10;99.90;;;;;;5054286;28;20048;-58
2022/05/31 03:34:02;;;;;;;7.95;2.28;;;7.10;99.90;;;;;;5055541;28;20021;-60
2022/05/31 03:36:27;;;;;;;6.32;2.15;;;7.00;99.90;;;;;;5055481;28;20025;-60
2022/05/31 03:38:53;;;;;;;3.83;1.95;;;7.00;99.90;;;;;;5055466;28;20032;-57
2022/05/31 03:41:19;;;;;;;3.42;1.88;;;7.00;99.90;;;;;;5055748;28;20095;-60
2022/05/31 03:43:45;;;;;;;5.20;1.85;;;7.10;99.90;;;;;;5054011;28;20116;-60
2022/05/31 03:46:15;;;;;;;5.90;2.08;;;7.00;99.90;;;;;;5053856;28;20032;-60
2022/05/31 03:48:41;;;;;;;6.05;2.25;;;7.00;99.90;;;;;;5055260;28;20092;-60
2022/05/31 03:51:09;;;;;;;4.55;1.92;;;7.00;99.90;;;;;;5055133;28;20106;-60
2022/05/31 03:53:36;;;;;;;4.18;2.22;;;7.10;99.90;;;;;;5055718;28;20032;-60
2022/05/31 03:56:04;;;;;;;5.57;1.83;;;7.10;99.90;;;;;;5055085;28;20043;-58
2022/05/31 03:58:30;;;;;;;2.30;2.00;;;7.10;99.90;;;;;;5055365;28;20032;-60
2022/05/31 04:00:55;;;;;;;3.53;1.73;;;7.10;99.90;;;;;;5055353;28;20112;-59
2022/05/31 04:03:21;;;;;;;7.07;2.85;;;7.20;99.90;;;;;;5054977;28;20078;-61
2022/05/31 04:05:48;;;;;;;3.25;2.00;;;7.30;99.90;;;;;;5053593;28;20402;-58
2022/05/31 04:08:14;;;;;;;3.05;2.00;;;7.30;99.90;;;;;;5054975;28;20021;-60
2022/05/31 04:10:42;;;;;;;6.05;1.95;;;7.40;99.90;;;;;;5054440;28;20017;-61
2022/05/31 04:13:09;;;;;;;2.95;1.90;;;7.60;99.90;;;;;;5053630;28;20025;-59
2022/05/31 04:15:35;;;;;;;3.67;2.08;;;7.70;99.90;;;;;;5054291;28;20377;-59
2022/05/31 04:18:02;;;;;;;2.40;2.08;;;7.80;99.90;;;;;;5053433;28;20094;-61
2022/05/31 04:20:28;;;;;;;8.65;2.33;;;7.90;99.90;;;;;;5054733;28;20045;-61
2022/05/31 04:25:40;;;;;;;6.10;2.28;;;8.40;99.90;;;;;;5063445;28;20033;-61
2022/05/31 04:28:06;;;;;;;3.70;2.22;;;8.70;99.90;;;;;;5053154;28;20137;-60
2022/05/31 04:30:31;;;;;;;3.83;2.33;;;8.90;99.90;;;;;;5053241;28;20116;-61
2022/05/31 04:32:57;;;;;;;3.58;2.00;;;9.10;99.90;;;;;;5054932;28;20039;-61
2022/05/31 04:35:23;;;;;;;4.93;2.15;;;9.20;99.90;;;;;;5055077;28;20029;-61
2022/05/31 04:37:48;;;;;;;5.57;2.00;;;9.30;99.90;;;;;;5053679;28;20047;-61
2022/05/31 04:40:14;;;;;;;3.88;2.38;;;9.40;99.90;;;;;;5054787;28;20029;-61
2022/05/31 04:42:41;;;;;;;4.55;2.28;;;9.40;99.90;;;;;;5053918;28;20059;-61
2022/05/31 04:45:08;;;;;;;3.72;1.77;;;9.50;99.90;;;;;;5053762;28;20031;-61
2022/05/31 04:47:34;;;;;;;6.85;2.78;;;9.60;99.90;;;;;;5053370;28;20108;-61
2022/05/31 04:50:00;;;;;;;2.67;2.22;;;9.70;99.90;;;;;;5054687;28;20036;-61
2022/05/31 04:52:25;;;;;;;3.35;2.25;;;9.90;99.90;;;;;;5053290;28;20021;-61
2022/05/31 04:54:51;;;;;;;6.88;2.15;;;10.00;99.90;;;;;;5053254;28;20017;-60
2022/05/31 04:57:16;;;;;;;8.15;3.42;;;10.10;99.90;;;;;;5053572;28;20031;-57
2022/05/31 04:59:42;;;;;;;4.53;2.35;;;10.20;99.90;;;;;;5053235;28;20028;-59
2022/05/31 05:02:09;;;;;;;5.57;2.35;;;10.30;99.90;;;;;;5053718;28;20094;-59
2022/05/31 05:04:35;;;;;;;3.13;1.98;;;10.50;99.90;;;;;;5054555;28;20033;-61
2022/05/31 05:07:01;;;;;;;6.90;2.50;;;10.70;99.90;;;;;;5052993;28;20033;-61
2022/05/31 05:09:26;;;;;;;7.07;2.08;;;10.80;99.90;;;;;;5054309;28;20021;-60
2022/05/31 05:11:52;;;;;;;3.38;2.33;;;10.80;99.90;;;;;;5053000;28;20463;-61
2022/05/31 05:14:17;;;;;;;7.20;2.40;;;10.90;99.90;;;;;;5054101;28;20070;-61
2022/05/31 05:16:43;;;;;;;4.20;2.30;;;10.90;99.90;;;;;;5054091;28;20591;-61
2022/05/31 05:19:08;;;;;;;3.72;2.13;;;11.00;99.90;;;;;;5052794;28;20024;-58
2022/05/31 05:21:34;;;;;;;6.07;2.53;;;11.10;99.90;;;;;;5053109;28;20376;-61
2022/05/31 05:24:00;;;;;;;7.47;2.22;;;11.10;99.90;;;;;;5054572;28;20104;-60
2022/05/31 05:26:25;;;;;;;3.67;1.90;;;11.20;99.90;;;;;;5053761;28;20060;-58
2022/05/31 05:31:35;;;;;;;3.13;2.15;;;11.30;99.90;;;;;;5054212;28;20105;-63
2022/05/31 05:34:02;;;;;;;4.10;2.15;;;11.40;99.90;;;;;;5052536;28;20021;-61
2022/05/31 05:36:29;;;;;;;8.48;2.58;;;11.40;99.90;;;;;;5052876;28;20021;-61
2022/05/31 05:38:55;;;;;;;5.50;2.58;;;11.40;99.90;;;;;;5052494;28;20025;-63
2022/05/31 05:41:22;;;;;;;4.68;2.28;;;11.40;99.90;;;;;;5053992;28;20452;-62
2022/05/31 05:43:48;;;;;;;8.18;3.03;;;11.60;99.90;;;;;;5053487;28;20098;-62
2022/05/31 05:46:19;;;;;;;3.90;2.40;;;11.50;99.90;;;;;;5053408;28;20480;-62
2022/05/31 05:48:45;;;;;;;4.57;2.70;;;11.30;99.90;;;;;;5053648;28;20017;-62
2022/05/31 05:51:23;;;;;;;9.07;4.18;;;11.20;99.90;;;;;;5052352;28;20086;-62
2022/05/31 05:53:49;;;;;;;13.95;3.30;;;11.20;99.90;;;;;;5053559;28;20017;-62
2022/05/31 05:56:16;;;;;;;6.07;2.95;;;11.20;99.90;;;;;;5052119;28;20034;-62
2022/05/31 05:58:42;;;;;;;3.88;2.53;;;11.30;99.90;;;;;;5053381;28;20089;-62
2022/05/31 06:01:18;;;;;;;5.20;2.92;;;11.40;99.90;;;;;;5052446;28;20033;-62
2022/05/31 06:03:53;;;;;;;6.05;2.88;;;11.40;99.90;;;;;;5053649;28;20036;-62
2022/05/31 06:06:21;;;;;;;7.47;2.90;;;11.50;99.90;;;;;;5053088;28;20025;-62
2022/05/31 06:08:52;;;;;;;8.30;3.15;;;11.70;99.90;;;;;;5052875;28;20025;-62
2022/05/31 06:11:26;;;;;;;4.15;2.38;;;11.80;99.90;;;;;;5052093;28;20025;-62
2022/05/31 06:14:09;;;;;;;8.63;4.93;;;12.00;99.90;;;;;;5053141;28;20032;-62
2022/05/31 06:16:39;;;;;;;5.18;2.08;;;12.30;99.90;;;;;;5052037;28;20083;-62
2022/05/31 06:19:17;;;;;;;3.90;2.60;;;12.40;99.90;;;;;;5053181;28;20518;-62
2022/05/31 06:21:43;;;;;;;3.92;2.40;;;12.40;99.90;;;;;;5051995;28;20033;-62
2022/05/31 06:24:09;;;;;;;8.18;4.50;;;12.60;99.90;;;;;;5051805;28;20029;-62
2022/05/31 06:26:35;;;;;;;11.88;2.95;;;13.00;99.90;;;;;;5053085;28;20056;-63
2022/05/31 06:29:03;;;;;;;7.03;3.10;;;13.20;99.90;;;;;;5051783;28;20056;-63
2022/05/31 06:31:29;;;;;;;3.42;2.25;;;14.20;99.90;;;;;;5053144;28;20017;-63
2022/05/31 06:33:54;;;;;;;7.85;2.08;;;15.50;99.90;;;;;;5052170;28;20112;-63
2022/05/31 06:36:20;;;;;;;3.65;2.10;;;16.50;99.90;;;;;;5053018;28;20026;-64
2022/05/31 06:38:46;;;;;;;7.47;3.10;;;17.20;99.90;;;;;;5054094;28;20098;-64
2022/05/31 06:41:12;;;;;;;2.97;1.98;;;18.10;99.90;;;;;;5055896;28;20032;-64
2022/05/31 06:43:38;;;;;;;4.05;1.80;;;19.20;99.90;;;;;;5056185;28;20051;-64
2022/05/31 06:46:09;;;;;;;6.20;1.98;;;20.10;99.90;;;;;;5055563;28;20056;-64
2022/05/31 06:48:35;;;;;;;2.83;1.50;;;20.90;99.90;;;;;;5055806;28;20025;-64
2022/05/31 06:51:05;;;;;;;3.25;1.67;;;20.90;99.90;;;;;;5056975;28;20021;-64
2022/05/31 06:56:48;;;;;;;3.28;2.08;;;21.90;99.90;;;;;;5057144;28;20090;-64
2022/05/31 06:59:01;;;;;;;4.07;2.10;;;22.80;99.90;;;;;;5056692;28;20055;-64
2022/05/31 07:01:35;;;;;;;5.03;2.00;;;23.00;99.50;;;;;;5056184;28;20055;-64
2022/05/31 07:04:01;;;;;;;5.25;2.00;;;23.10;96.90;;;;;;5056591;28;20036;-64
2022/05/31 07:06:27;;;;;;;6.10;1.85;;;23.30;96.80;;;;;;5056643;28;20100;-64
2022/05/31 07:08:53;;;;;;;4.90;2.50;;;24.20;97.30;;;;;;5055341;28;20025;-64
2022/05/31 07:11:20;;;;;;;4.10;1.88;;;24.90;94.20;;;;;;5056421;28;20056;-64
2022/05/31 07:13:46;;;;;;;3.20;1.67;;;25.20;92.80;;;;;;5056499;28;20035;-66
2022/05/31 07:16:12;;;;;;;4.78;1.92;;;26.20;92.60;;;;;;5056465;28;20086;-65
2022/05/31 07:18:37;;;;;;;5.70;1.88;;;26.80;87.80;;;;;;5055150;28;20112;-65
2022/05/31 07:21:03;;;;;;;4.55;1.60;;;26.60;86.30;;;;;;5055397;28;20025;-65
2022/05/31 07:23:29;;;;;;;4.70;1.83;;;27.20;87.80;;;;;;5056395;28;20100;-62
2022/05/31 07:25:54;;;;;;;2.97;1.52;;;27.70;81.90;;;;;;5055123;28;20116;-62
2022/05/31 07:28:20;;;;;;;6.85;1.70;;;28.30;81.80;;;;;;5056430;28;20021;-63
2022/05/31 07:30:45;;;;;;;6.57;2.28;;;28.50;77.50;;;;;;5056249;28;20025;-61
2022/05/31 07:33:12;;;;;;;5.55;2.85;;;29.40;74.70;;;;;;5054950;28;20027;-61
2022/05/31 07:35:41;;;;;;;6.28;2.10;;;29.30;70.60;;;;;;5054796;28;20052;-63
2022/05/31 07:38:08;;;;;;;5.93;1.80;;;29.50;70.90;;;;;;5056100;28;20025;-64
2022/05/31 07:40:34;;;;;;;5.25;1.25;;;27.90;69.20;;;;;;5054829;28;20029;-62
2022/05/31 07:43:01;;;;;;;6.30;3.72;;;26.90;74.90;;;;;;5054817;28;20028;-62
2022/05/31 07:45:27;;;;;;;7.70;2.97;;;26.60;75.10;;;;;;5055839;28;20033;-61
2022/05/31 07:47:53;;;;;;;6.63;1.92;;;26.50;74.40;;;;;;5055433;28;20083;-63
2022/05/31 07:50:19;;;;;;;2.40;1.63;;;26.10;74.90;;;;;;5053783;28;20017;-61
2022/05/31 07:52:45;;;;;;;2.95;1.50;;;25.90;75.60;;;;;;5055818;28;20020;-64
2022/05/31 07:55:10;;;;;;;6.15;1.45;;;25.40;79.10;;;;;;5054375;28;20029;-59
2022/05/31 08:00:20;;;;;;;5.38;1.35;;;24.70;78.00;;;;;;5055931;28;20561;-59
2022/05/31 08:02:46;;;;;;;5.22;1.50;;;25.80;76.60;;;;;;5054331;28;20024;-59
2022/05/31 08:05:12;;;;;;;3.78;1.30;;;26.20;76.00;;;;;;5055720;28;20074;-56
2022/05/31 08:07:39;;;;;;;5.15;1.67;;;27.60;72.70;;;;;;5056075;28;20044;-58
2022/05/31 08:10:05;;;;;;;8.35;2.25;;;27.60;72.40;;;;;;5054682;28;20025;-61
2022/05/31 08:12:31;;;;;;;3.13;1.35;;;29.20;72.80;;;;;;5054722;28;20084;-64
2022/05/31 08:14:56;;;;;;;2.83;1.05;;;30.30;69.60;;;;;;5054361;28;20543;-63
2022/05/31 08:17:22;;;;;;;2.35;1.00;;;30.90;68.70;;;;;;5054041;28;20039;-62
2022/05/31 08:19:48;;;;;;;2.38;1.42;;;31.10;65.90;;;;;;5055336;28;20024;-63
2022/05/31 08:22:13;;;;;;;5.22;1.63;;;31.00;66.80;;;;;;5055489;28;20067;-62
2022/05/31 08:24:39;;;;;;;3.78;1.30;;;30.90;64.20;;;;;;5054204;28;20033;-64
2022/05/31 08:27:05;;;;;;;4.60;1.50;;;31.60;66.30;;;;;;5055085;28;20028;-62
2022/05/31 08:29:31;;;;;;;3.67;1.45;;;30.90;63.90;;;;;;5055190;28;20021;-62
2022/05/31 08:31:58;;;;;;;3.22;1.20;;;31.80;65.60;;;;;;5053950;28;20059;-63
2022/05/31 08:34:25;;;;;;;6.95;1.60;;;33.10;63.00;;;;;;5053593;28;20025;-61
2022/05/31 08:36:51;;;;;;;5.75;1.40;;;33.90;60.80;;;;;;5053704;28;20030;-63
2022/05/31 08:39:16;;;;;;;3.55;1.60;;;34.60;59.70;;;;;;5053873;28;20029;-65
2022/05/31 08:41:48;;;;;;;3.22;1.60;;;34.80;59.00;;;;;;5055076;28;20036;-61
2022/05/31 08:44:38;;;;;;;3.50;1.30;;;35.20;59.70;;;;;;5054541;28;20033;-61
2022/05/31 08:47:22;;;;;;;;;;;35.60;56.10;;;;;;5055319;28;20079;-59
2022/05/31 08:53:07;;;;;;;2.70;1.00;;;33.20;55.00;;;;;;5055255;28;20391;-63
2022/05/31 08:58:30;;;;;;;2.28;1.15;;;30.10;55.00;;;;;;5054588;28;20438;-63
2022/05/31 09:00:59;;;;;;;1.80;1.20;;;29.30;58.80;;;;;;5053929;28;20029;-59
2022/05/31 09:03:34;;;;;;;2.15;1.00;;;29.00;59.40;;;;;;5054426;28;20391;-59
2022/05/31 09:06:00;;;;;;;1.98;0.95;;;27.70;60.30;;;;;;5053198;28;20024;-60
2022/05/31 09:08:36;;;;;;;1.80;0.95;;;26.60;61.20;;;;;;5054469;28;20031;-61
2022/05/31 09:11:26;;;;;;;2.15;0.85;;;26.00;60.90;;;;;;5053393;28;20028;-57
2022/05/31 09:14:10;;;;;;;1.48;1.00;;;25.70;62.90;;;;;;5053660;28;20065;-64
2022/05/31 09:17:02;;;;;;;1.00;0.93;;;26.20;63.50;;;;;;5053043;28;20029;-58
2022/05/31 09:20:00;;;;;;;1.50;1.00;;;25.50;63.30;;;;;;5054177;28;20063;-60
2022/05/31 09:22:26;;;;;;;2.58;0.90;;;25.30;63.30;;;;;;5054147;28;20029;-58
2022/05/31 09:24:51;;;;;;;2.58;0.98;;;26.40;63.30;;;;;;5052755;28;20025;-60
2022/05/31 09:27:39;;;;;;;4.53;1.02;;;26.60;59.30;;;;;;5053893;28;20029;-58
2022/05/31 09:30:41;;;;;;;2.03;0.68;;;25.80;60.20;;;;;;5052721;28;20032;-60
2022/05/31 09:33:18;;;;;;;1.02;0.85;;;25.00;63.20;;;;;;5051830;28;20083;-59
2022/05/31 09:36:13;;;;;;;0.93;0.70;;;24.00;63.70;;;;;;5053528;28;20475;-58
2022/05/31 09:39:04;;;;;;;1.85;0.95;;;23.50;65.00;;;;;;5052893;28;20021;-59
2022/05/31 09:41:32;;;;;;;1.77;0.80;;;24.40;65.50;;;;;;5054106;28;20017;-58
2022/05/31 09:44:07;;;;;;;1.63;0.80;;;26.10;63.20;;;;;;5053671;28;20487;-64
2022/05/31 09:46:56;;;;;;;1.05;0.90;;;28.10;62.10;;;;;;5053558;28;20033;-64
2022/05/31 09:49:42;;;;;;;3.03;1.23;;;29.00;57.70;;;;;;5052409;28;20051;-63
2022/05/31 09:52:15;;;;;;;1.10;0.90;;;28.70;56.00;;;;;;5052366;28;20036;-63
2022/05/31 09:58:08;;;;;;;1.45;1.00;;;28.40;55.70;;;;;;5053540;28;20039;-61
2022/05/31 10:00:38;;;;;;;1.10;1.00;;;28.10;56.40;;;;;;5053458;28;20498;-63
2022/05/31 10:03:15;;;;;;;1.48;0.95;;;27.90;57.70;;;;;;5053078;28;20021;-62
2022/05/31 10:05:43;;;;;;;1.63;1.20;;;28.20;58.30;;;;;;5053678;28;20029;-63
2022/05/31 10:08:29;;;;;;;2.00;0.98;;;28.10;56.50;;;;;;5052634;28;20039;-63
2022/05/31 10:10:54;;;;;;;2.08;1.10;;;27.10;57.00;;;;;;5053551;28;20075;-63
2022/05/31 10:13:55;;;;;;;1.10;1.00;;;26.30;60.00;;;;;;5051934;28;20025;-61
2022/05/31 10:16:27;;;;;;;2.55;1.08;;;26.30;60.30;;;;;;5047986;28;20071;-64
2022/05/31 10:19:03;;;;;;;1.70;1.30;;;26.00;63.10;;;;;;5052005;28;20053;-64
2022/05/31 10:21:34;;;;;;;2.30;1.30;;;26.10;63.70;;;;;;5051944;28;20055;-64
2022/05/31 10:24:06;;;;;;;1.70;1.10;;;27.10;63.40;;;;;;5051961;28;20056;-64
2022/05/31 10:26:34;;;;;;;1.15;1.13;;;27.50;60.60;;;;;;5051923;28;20032;-64
2022/05/31 10:29:06;;;;;;;2.00;1.10;;;27.30;60.00;;;;;;5053448;28;20445;-64
2022/05/31 10:31:41;;;;;;;2.78;1.80;;;27.20;61.30;;;;;;5053006;28;20021;-64
2022/05/31 10:34:24;;;;;;;1.48;1.05;;;27.80;61.60;;;;;;5053901;28;20053;-64
2022/05/31 10:36:53;;;;;;;3.13;1.40;;;27.70;60.60;;;;;;5053397;28;20104;-63
2022/05/31 10:39:23;;;;;;;2.03;1.38;;;26.40;63.20;;;;;;5053029;28;20079;-63
2022/05/31 10:41:51;;;;;;;2.03;1.20;;;25.30;65.90;;;;;;5051590;28;20028;-64
2022/05/31 10:44:34;;;;;;;2.65;1.30;;;25.00;65.90;;;;;;5053462;28;20029;-64
2022/05/31 10:47:12;;;;;;;2.90;1.08;;;24.90;64.90;;;;;;5051626;28;20021;-64
2022/05/31 10:49:39;;;;;;;1.05;0.98;;;25.40;65.50;;;;;;5053219;28;20033;-65
2022/05/31 10:52:20;;;;;;;6.32;1.20;;;25.80;65.80;;;;;;5051700;28;20025;-65
2022/05/31 10:54:59;;;;;;;3.80;1.30;;;26.10;65.80;;;;;;5051677;28;20025;-63
2022/05/31 10:57:39;;;;;;;2.83;1.10;;;26.20;64.20;;;;;;5053205;28;20091;-65
2022/05/31 11:00:14;;;;;;;2.67;0.95;;;26.40;64.20;;;;;;5052869;28;20025;-65
2022/05/31 11:02:57;;;;;;;4.07;1.17;;;26.50;64.00;;;;;;5052931;28;20021;-65
2022/05/31 11:05:40;;;;;;;1.55;1.42;;;26.40;62.80;;;;;;5053239;28;20033;-64
2022/05/31 11:11:36;;;;;;;2.50;1.30;;;25.40;64.40;;;;;;5052842;28;20029;-64
2022/05/31 11:14:36;;;;;;;2.25;1.20;;;25.30;63.40;;;;;;5052651;28;20017;-61
2022/05/31 11:17:32;;;;;;;1.98;1.08;;;24.90;63.20;;;;;;5052668;28;20056;-64
2022/05/31 11:20:19;;;;;;;1.52;0.80;;;24.60;63.90;;;;;;5052805;28;20116;-63
2022/05/31 11:23:04;;;;;;;2.30;1.00;;;24.60;63.50;;;;;;5052346;28;20036;-62
2022/05/31 11:25:32;;;;;;;1.23;0.90;;;24.50;63.00;;;;;;5051796;28;20024;-60
2022/05/31 11:28:34;;;;;;;4.82;1.40;;;24.10;66.30;;;;;;5056544;28;20025;-64
2022/05/31 11:31:22;;;;;;;;;;;23.90;66.60;;;;;;5056585;28;20021;-63
2022/05/31 11:34:23;;;;;;;1.30;1.15;;;23.60;69.70;;;;;;5052088;28;19909;-64
2022/05/31 11:37:15;;;;;;;1.23;0.90;;;23.70;72.70;;;;;;5037461;28;20566;-63
2022/05/31 11:39:53;;;;;;;3.17;1.25;;;23.40;73.10;;;;;;5056275;28;20466;-65
2022/05/31 11:42:40;;;;;;;2.58;1.30;;;23.60;73.80;;;;;;5056640;28;20024;-64
2022/05/31 11:45:24;;;;;;;1.23;0.90;;;23.70;74.90;;;;;;5054942;28;20025;-66
2022/05/31 11:48:10;;;;;;;1.98;1.30;;;23.50;74.30;;;;;;5056231;28;20071;-65
2022/05/31 11:51:05;;;;;;;2.80;1.35;;;23.70;72.70;;;;;;5054627;28;20024;-65
2022/05/31 11:53:43;;;;;;;4.53;1.40;;;23.50;74.50;;;;;;5055492;28;20037;-63
2022/05/31 11:56:12;;;;;;;4.20;1.30;;;23.20;76.10;;;;;;5054800;28;20025;-65
2022/05/31 11:58:46;;;;;;;1.52;1.40;;;23.40;75.10;;;;;;5055728;28;20064;-66
2022/05/31 12:01:29;;;;;;;1.85;1.30;;;23.30;75.90;;;;;;5054493;28;20024;-65
2022/05/31 12:04:04;;;;;;;1.75;1.10;;;22.90;74.10;;;;;;5055986;28;20100;-64
2022/05/31 12:06:48;;;;;;;5.45;1.85;;;22.60;75.20;;;;;;5055576;28;20025;-64
2022/05/31 12:09:25;;;;;;;1.08;0.98;;;22.40;74.10;;;;;;5055918;28;20021;-64
2022/05/31 12:12:10;;;;;;;1.50;1.40;;;22.40;76.40;;;;;;5055795;28;20033;-65
2022/05/31 12:14:39;;;;;;;2.55;1.00;;;22.60;73.90;;;;;;5054821;28;20020;-66
2022/05/31 12:17:06;;;;;;;4.20;0.98;;;22.50;74.80;;;;;;5055450;28;20151;-64
2022/05/31 12:19:40;;;;;;;2.83;1.60;;;22.50;76.70;;;;;;5055349;28;20036;-62
2022/05/31 12:22:18;;;;;;;3.10;1.42;;;22.60;76.00;;;;;;5054357;28;20074;-64
2022/05/31 12:24:52;;;;;;;2.75;1.30;;;22.80;76.00;;;;;;5055237;28;20024;-60
2022/05/31 12:27:24;;;;;;;3.65;1.30;;;22.90;73.30;;;;;;5053957;28;20057;-61
2022/05/31 12:30:07;;;;;;;2.22;1.20;;;22.70;71.70;;;;;;5058388;28;20036;-58
2022/05/31 12:32:36;;;;;;;2.15;0.90;;;22.90;72.00;;;;;;5066289;28;20036;-61
2022/05/31 12:35:04;;;;;;;3.78;1.10;;;22.90;73.00;;;;;;5061552;28;20021;-64
2022/05/31 12:37:49;;;;;;;1.70;1.00;;;23.20;74.40;;;;;;5053843;28;20021;-60
2022/05/31 12:40:34;;;;;;;2.17;1.00;;;23.50;71.50;;;;;;5053792;28;20025;-60
2022/05/31 12:43:03;;;;;;;1.63;0.88;;;23.70;72.00;;;;;;5053664;28;20078;-60
2022/05/31 12:45:35;;;;;;;3.00;0.70;;;23.70;72.10;;;;;;5054800;28;20033;-59
2022/05/31 12:48:02;;;;;;;2.15;0.80;;;23.80;69.30;;;;;;5053560;28;20039;-64
2022/05/31 12:51:07;;;;;;;4.00;1.05;;;23.90;70.70;;;;;;5054413;28;20045;-62
2022/05/31 12:54:01;;;;;;;2.13;1.20;;;24.10;69.70;;;;;;5054794;28;20028;-58
2022/05/31 12:56:34;;;;;;;1.33;1.02;;;24.30;67.70;;;;;;5054027;28;20092;-57
2022/05/31 12:59:01;;;;;;;3.10;1.10;;;24.40;68.80;;;;;;5054564;28;20048;-56
2022/05/31 13:01:26;;;;;;;2.03;1.15;;;24.40;68.50;;;;;;5053594;28;20021;-55
2022/05/31 13:04:26;;;;;;;2.05;1.00;;;24.30;69.10;;;;;;5053345;28;20067;-58
2022/05/31 13:07:13;;;;;;;2.35;1.00;;;24.10;71.30;;;;;;5053060;28;20395;-58
2022/05/31 13:09:43;;;;;;;2.22;1.20;;;24.00;71.20;;;;;;5054418;28;20017;-57
2022/05/31 13:20:56;;;;;;;2.92;1.02;;;23.30;69.70;;;;;;5054494;28;20114;-61
2022/05/31 13:23:34;;;;;;;1.92;1.17;;;23.50;67.90;;;;;;5054258;28;20147;-62
2022/05/31 13:26:16;;;;;;;3.28;1.42;;;23.60;67.40;;;;;;5052935;28;20036;-62
2022/05/31 13:29:07;;;;;;;8.57;1.50;;;23.90;70.50;;;;;;5052848;28;20021;-59
2022/05/31 13:31:44;;;;;;;4.22;1.00;;;24.10;73.20;;;;;;5054129;28;20049;-59
2022/05/31 13:34:10;;;;;;;1.35;1.17;;;24.20;74.10;;;;;;5054199;28;20095;-59
2022/05/31 13:36:48;;;;;;;1.33;1.23;;;24.30;71.30;;;;;;5052615;28;20120;-60
2022/05/31 13:39:16;;;;;;;5.03;1.58;;;24.20;73.30;;;;;;5052667;28;20024;-60
2022/05/31 13:41:49;;;;;;;3.83;1.30;;;24.00;68.80;;;;;;5052748;28;20031;-60
2022/05/31 13:44:20;;;;;;;3.13;1.40;;;24.00;71.90;;;;;;5052548;28;20103;-58